עמוד ראשי
METAR-TAF:

METAR-TAF

שדות תעופה :

Kugluktuk, נונאווט, קנדה

קו רוחב: 67-49N, קו אורך: 115-08W, גובה: 22מטר

תצפית מזג אוויר נוכחית

הדו"ח נערך לפני 1 שעות ו 2דקות, בשעה 16:00 UTC
רוח רגועה
טמפרטורת 9 צלסיוס
לחות 61%
לחץ 1009 hPa
ראות: 24.1קילומטר
מעט עננים בגובה 3000רגל
עננים בינוניים בגובה 10000רגל

METAR: CYCO 171600Z 00000KT 15SM FEW030 BKN100 09/02 A2981 RMK CU1AC5 SLP099

זמן: 11:02 (17:02 UTC)

תחזית

הדו"ח נערך לפני 4 שעות ו 22דקות, בשעה 12:40 UTC
תחזית בתוקף מ 17 ב 13 UTC עד 18 ב 01 UTC
רוח 8קשר מכיוון צפון-מערב
ראות: 10קילומטר
עננים פזורים בגובה 7000רגל
עננים בינוניים בגובה 14000רגל
זמנית מ -
17 ב 13 UTC עד 17 ב 15 UTC
ראות: 10קילומטר
עננים בינוניים בגובה 7000רגל
ממטרי גשם קלים
מ 17 ב 1800UTC
רוח 12קשר מכיוון צפון/צפון-מערב
ראות: 10קילומטר
עננים בינוניים בגובה 4000רגל

TAF: CYCO 171240Z 1713/1801 32008KT P6SM SCT070 BKN140 TEMPO 1713/1715 P6SM -SHRA BKN070 FM171800 34012KT P6SM BKN040 RMK NXT FCST BY 171900Z

תצפיות ותחזיות מזג אוויר לגבי יותר מ- 4,000 שדות תעופה ברחבי העולם. דוחות METAR ו- TAF.

התחנות הזמינות מסומנות בנקודות צהובות ואדומות על גבי המפה.

העבר את העכבר לנקודה הצבעונית על מנת לראות את שם התחנה.

לאחר מכן, לחץ כדי לראות את תוכן ואת תחזיות מזג האוויר.

כדי לשנות את המפה: לחץ על הכפתורים הירוקים עם הפלוס השחור כדי להתקרב; על הכפתור הירוק עם המקף כדי להתרחק; או בחיצים הירוקים למפות סמוכות.


METAR-TAF: